createdAt,value
2018-10-21T00:00:40.491Z,103108.84
2018-10-21T00:01:40.782Z,103107.83
2018-10-21T00:02:41.108Z,103107.59
2018-10-21T00:03:41.463Z,103106.48
2018-10-21T00:04:41.967Z,103105.98
2018-10-21T00:05:42.267Z,103105.33
2018-10-21T00:06:42.619Z,103104.91
2018-10-21T00:07:42.926Z,103104.55
2018-10-21T00:08:43.204Z,103104.22
2018-10-21T00:09:43.681Z,103103.45
2018-10-21T00:10:44.080Z,103102.45
2018-10-21T00:11:44.624Z,103102.13
2018-10-21T00:12:45.178Z,103101.79
2018-10-21T00:13:45.677Z,103101.52
2018-10-21T00:14:46.074Z,103100.84
2018-10-21T00:15:46.676Z,103101.02
2018-10-21T00:16:46.959Z,103100.61
2018-10-21T00:17:47.246Z,103100.02
2018-10-21T00:18:47.544Z,103099.67
2018-10-21T00:19:48.055Z,103099.01
2018-10-21T00:20:48.903Z,103098.08
2018-10-21T00:21:49.133Z,103096.80
2018-10-21T00:22:49.951Z,103096.06
2018-10-21T00:23:50.524Z,103094.88
2018-10-21T00:24:51.215Z,103093.80
2018-10-21T00:25:51.954Z,103092.62
2018-10-21T00:26:52.313Z,103092.13
2018-10-21T00:27:52.849Z,103091.79
2018-10-21T00:28:53.390Z,103091.29
2018-10-21T00:29:53.630Z,103090.95
2018-10-21T00:30:54.173Z,103090.78
2018-10-21T00:31:54.601Z,103090.78
2018-10-21T00:32:54.969Z,103091.02
2018-10-21T00:33:54.383Z,103090.76
2018-10-21T00:34:56.050Z,103090.53
2018-10-21T00:35:56.265Z,103090.36
2018-10-21T00:36:56.575Z,103089.59
2018-10-21T00:37:56.947Z,103089.43
2018-10-21T00:38:57.654Z,103088.76
2018-10-21T00:39:56.625Z,103088.33
2018-10-21T00:40:03.738Z,103081.38
2018-10-21T00:41:05.238Z,103080.61
2018-10-21T00:42:05.637Z,103080.61
2018-10-21T00:43:06.079Z,103080.61
2018-10-21T00:44:06.489Z,103080.52
2018-10-21T00:45:07.413Z,103080.52
2018-10-21T00:46:06.615Z,103080.87
2018-10-21T00:47:07.986Z,103080.69
2018-10-21T00:48:08.097Z,103080.94
2018-10-21T00:53:42.092Z,103080.80
2018-10-21T00:54:42.178Z,103081.63
2018-10-21T00:55:42.601Z,103082.22
2018-10-21T00:56:42.856Z,103082.98
2018-10-21T00:57:43.770Z,103083.55
2018-10-21T00:58:45.097Z,103084.25
2018-10-21T00:59:44.514Z,103085.34
2018-10-21T01:00:44.985Z,103085.92
2018-10-21T01:01:45.450Z,103085.91
2018-10-21T01:02:45.999Z,103085.98
2018-10-21T01:03:46.474Z,103086.84
2018-10-21T01:04:46.855Z,103087.32
2018-10-21T01:05:47.203Z,103088.56
2018-10-21T01:06:47.558Z,103089.52
2018-10-21T01:07:48.032Z,103090.27
2018-10-21T01:08:48.521Z,103091.75
2018-10-21T01:09:48.844Z,103091.91
2018-10-21T01:10:49.264Z,103093.15
2018-10-21T01:11:49.743Z,103094.75
2018-10-21T01:12:50.228Z,103095.73
2018-10-21T01:13:50.586Z,103096.73
2018-10-21T01:14:50.929Z,103097.74
2018-10-21T01:15:51.223Z,103098.72
2018-10-21T01:16:51.786Z,103099.62
2018-10-21T01:17:52.106Z,103100.30
2018-10-21T01:18:52.498Z,103101.10
2018-10-21T01:19:52.857Z,103101.41
2018-10-21T01:20:53.631Z,103102.42
2018-10-21T01:21:52.897Z,103102.83
2018-10-21T01:22:54.227Z,103103.83
2018-10-21T01:23:54.549Z,103104.31
2018-10-21T01:24:54.922Z,103105.20
2018-10-21T01:25:03.553Z,103110.64
2018-10-21T01:26:04.946Z,103110.38
2018-10-21T01:27:05.371Z,103110.87
2018-10-21T01:28:04.654Z,103110.95
2018-10-21T01:29:06.154Z,103111.55
2018-10-21T01:30:05.420Z,103111.88
2018-10-21T01:31:06.803Z,103111.88
2018-10-21T01:32:07.082Z,103111.49
2018-10-21T01:33:07.478Z,103111.65
2018-10-21T01:34:06.785Z,103111.67
2018-10-21T01:35:08.449Z,103111.50
2018-10-21T01:36:08.970Z,103111.58
2018-10-21T01:37:08.250Z,103111.82
2018-10-21T01:38:08.594Z,103111.66
2018-10-21T01:39:08.924Z,103111.73
2018-10-21T01:40:09.221Z,103111.23
2018-10-21T01:41:10.620Z,103111.50
2018-10-21T01:42:11.024Z,103111.06
2018-10-21T01:43:11.443Z,103110.67
2018-10-21T01:44:12.776Z,103110.50
2018-10-21T01:45:12.309Z,103109.73
2018-10-21T01:46:11.553Z,103109.23
2018-10-21T01:47:13.097Z,103109.23
2018-10-21T01:48:13.510Z,103108.30
2018-10-21T01:49:13.815Z,103107.70
2018-10-21T01:50:14.089Z,103107.13
2018-10-21T01:51:14.611Z,103106.01
2018-10-21T01:52:13.853Z,103105.42
2018-10-21T01:53:15.312Z,103104.75
2018-10-21T01:54:15.579Z,103104.06
2018-10-21T01:55:15.897Z,103103.53
2018-10-21T01:56:16.267Z,103102.37
2018-10-21T01:57:16.628Z,103102.11
2018-10-21T01:58:15.874Z,103101.69
2018-10-21T01:59:17.454Z,103101.25
2018-10-21T02:00:17.772Z,103101.53
2018-10-21T02:01:18.125Z,103102.00
2018-10-21T02:02:18.559Z,103102.02
2018-10-21T02:03:19.032Z,103101.99
2018-10-21T02:04:18.185Z,103102.06
2018-10-21T02:05:19.761Z,103101.56
2018-10-21T02:06:20.591Z,103102.07
2018-10-21T02:07:20.905Z,103102.14
2018-10-21T02:08:21.303Z,103102.06
2018-10-21T02:09:22.049Z,103102.06
2018-10-21T02:10:22.387Z,103102.12
2018-10-21T02:11:22.798Z,103101.95
2018-10-21T02:12:23.130Z,103102.04
2018-10-21T02:13:23.510Z,103102.29
2018-10-21T02:14:23.904Z,103102.00
2018-10-21T02:15:24.202Z,103101.91
2018-10-21T02:16:24.603Z,103101.30
2018-10-21T02:17:25.078Z,103100.98
2018-10-21T02:18:25.835Z,103099.70
2018-10-21T02:18:34.843Z,103084.59
2018-10-21T02:19:34.093Z,103083.98
2018-10-21T02:20:35.412Z,103083.48
2018-10-21T02:21:35.791Z,103083.17
2018-10-21T02:22:36.270Z,103082.56
2018-10-21T02:23:36.664Z,103082.33
2018-10-21T02:24:36.964Z,103082.26
2018-10-21T02:25:37.383Z,103082.35
2018-10-21T02:26:37.756Z,103082.58
2018-10-21T02:27:37.034Z,103082.25
2018-10-21T02:28:38.940Z,103082.34
2018-10-21T02:29:39.241Z,103082.27
2018-10-21T02:30:39.897Z,103082.37
2018-10-21T02:31:40.266Z,103082.86
2018-10-21T02:32:40.751Z,103082.86
2018-10-21T02:33:41.293Z,103083.03
2018-10-21T02:34:40.536Z,103082.86
2018-10-21T02:35:41.871Z,103083.03
2018-10-21T02:36:42.220Z,103082.37
2018-10-21T02:37:42.633Z,103082.11
2018-10-21T02:38:42.972Z,103081.58
2018-10-21T02:39:43.296Z,103081.09
2018-10-21T02:40:43.625Z,103079.99
2018-10-21T02:41:44.026Z,103079.12
2018-10-21T02:42:44.411Z,103078.47
2018-10-21T02:43:44.795Z,103078.22
2018-10-21T02:44:45.250Z,103077.86
2018-10-21T02:45:45.544Z,103077.69
2018-10-21T02:46:45.876Z,103076.90
2018-10-21T02:47:46.426Z,103077.15
2018-10-21T02:48:46.805Z,103077.56
2018-10-21T02:49:47.273Z,103078.05
2018-10-21T02:50:47.253Z,103078.30
2018-10-21T02:51:47.728Z,103078.69
2018-10-21T02:52:48.139Z,103079.10
2018-10-21T02:53:48.756Z,103079.59
2018-10-21T02:54:49.077Z,103079.74
2018-10-21T02:55:49.971Z,103080.06
2018-10-21T02:56:49.359Z,103080.31
2018-10-21T02:57:50.705Z,103080.47
2018-10-21T02:58:51.055Z,103080.63
2018-10-21T02:59:51.366Z,103080.94
2018-10-21T03:00:51.935Z,103080.59
2018-10-21T03:01:52.495Z,103080.50
2018-10-21T03:02:52.789Z,103080.31
2018-10-21T03:03:53.161Z,103080.09
2018-10-21T03:04:53.586Z,103079.91
2018-10-21T03:05:54.002Z,103079.58
2018-10-21T03:06:02.648Z,103075.96
2018-10-21T03:07:04.067Z,103075.02
2018-10-21T03:08:04.400Z,103075.20
2018-10-21T03:09:04.842Z,103074.59
2018-10-21T03:10:03.992Z,103074.84
2018-10-21T03:11:06.313Z,103074.27
2018-10-21T03:12:05.608Z,103074.10
2018-10-21T03:13:05.907Z,103074.10
2018-10-21T03:14:06.506Z,103074.33
2018-10-21T03:15:06.874Z,103074.16
2018-10-21T03:16:06.262Z,103074.59
2018-10-21T03:17:07.755Z,103074.26
2018-10-21T03:18:08.099Z,103073.85
2018-10-21T03:19:07.361Z,103074.52
2018-10-21T03:20:08.720Z,103075.30
2018-10-21T03:21:09.342Z,103076.28
2018-10-21T03:22:08.494Z,103078.05
2018-10-21T03:23:09.879Z,103079.15
2018-10-21T03:24:10.179Z,103080.81
2018-10-21T03:25:10.704Z,103082.18
2018-10-21T03:26:11.104Z,103083.59
2018-10-21T03:27:11.843Z,103084.59
2018-10-21T03:28:11.097Z,103086.11
2018-10-21T03:29:12.407Z,103086.61
2018-10-21T03:30:12.729Z,103086.94
2018-10-21T03:31:13.092Z,103087.97
2018-10-21T03:32:13.393Z,103088.54
2018-10-21T03:33:13.847Z,103089.73
2018-10-21T03:34:13.396Z,103091.06
2018-10-21T03:35:14.726Z,103091.77
2018-10-21T03:36:15.174Z,103093.28
2018-10-21T03:37:15.422Z,103094.35
2018-10-21T03:38:15.710Z,103095.98
2018-10-21T03:39:16.333Z,103097.08
2018-10-21T03:40:16.765Z,103098.27
2018-10-21T03:41:16.285Z,103099.19
2018-10-21T03:42:18.606Z,103100.11
2018-10-21T03:43:17.999Z,103101.13
2018-10-21T03:44:18.294Z,103101.98
2018-10-21T03:45:18.549Z,103103.08
2018-10-21T03:46:18.954Z,103103.60
2018-10-21T03:47:19.155Z,103104.86
2018-10-21T03:48:19.443Z,103105.86
2018-10-21T03:49:19.842Z,103106.72
2018-10-21T03:50:19.170Z,103107.90
2018-10-21T03:51:20.663Z,103108.30
2018-10-21T03:52:21.109Z,103108.95
2018-10-21T03:53:21.832Z,103109.55
2018-10-21T03:54:22.341Z,103109.62
2018-10-21T03:55:22.654Z,103110.36
2018-10-21T03:56:22.966Z,103110.87
2018-10-21T03:57:23.313Z,103110.60
2018-10-21T03:57:32.000Z,103116.27
2018-10-21T03:58:33.282Z,103115.83
2018-10-21T03:59:33.564Z,103115.83
2018-10-21T04:00:33.983Z,103116.07
2018-10-21T04:01:34.427Z,103116.01
2018-10-21T04:02:34.807Z,103116.41
2018-10-21T04:03:35.163Z,103116.58
2018-10-21T04:04:35.436Z,103116.41
2018-10-21T04:05:36.040Z,103116.25
2018-10-21T04:06:36.466Z,103116.41
2018-10-21T04:07:36.752Z,103116.08
2018-10-21T04:08:37.079Z,103115.67
2018-10-21T04:09:37.374Z,103115.66
2018-10-21T04:10:37.798Z,103114.92
2018-10-21T04:11:38.143Z,103114.08
2018-10-21T04:12:39.505Z,103113.16
2018-10-21T04:13:39.097Z,103112.93
2018-10-21T04:14:40.340Z,103112.19
2018-10-21T04:15:39.592Z,103111.41
2018-10-21T04:16:40.012Z,103110.59
2018-10-21T04:17:40.323Z,103109.51
2018-10-21T04:18:40.739Z,103108.50
2018-10-21T04:19:41.062Z,103107.52
2018-10-21T04:20:40.444Z,103106.86
2018-10-21T04:21:41.989Z,103105.27
2018-10-21T04:22:42.327Z,103103.95
2018-10-21T04:23:43.140Z,103102.27
2018-10-21T04:24:43.448Z,103101.09
2018-10-21T04:25:44.139Z,103099.67
2018-10-21T04:26:44.595Z,103098.36
2018-10-21T04:27:45.380Z,103097.11
2018-10-21T04:28:45.680Z,103095.92
2018-10-21T04:29:46.222Z,103094.02
2018-10-21T04:30:47.025Z,103093.02
2018-10-21T04:31:47.794Z,103092.32
2018-10-21T04:32:48.237Z,103090.72
2018-10-21T04:33:48.502Z,103089.31
2018-10-21T04:34:48.960Z,103087.87
2018-10-21T04:35:49.573Z,103086.45
2018-10-21T04:36:49.955Z,103085.52
2018-10-21T04:37:50.427Z,103084.02
2018-10-21T04:38:50.805Z,103083.52
2018-10-21T04:39:51.173Z,103082.34
2018-10-21T04:40:51.697Z,103081.57
2018-10-21T04:41:52.244Z,103080.55
2018-10-21T04:42:52.784Z,103080.14
2018-10-21T04:43:02.873Z,103065.20
2018-10-21T04:44:04.265Z,103065.11
2018-10-21T04:45:04.577Z,103065.61
2018-10-21T04:46:05.172Z,103065.95
2018-10-21T04:47:04.713Z,103066.28
2018-10-21T04:48:05.127Z,103066.45
2018-10-21T04:49:06.589Z,103067.31
2018-10-21T04:50:06.954Z,103067.75
2018-10-21T04:51:08.462Z,103068.58
2018-10-21T04:52:07.149Z,103068.84
2018-10-21T04:53:07.812Z,103069.66
2018-10-21T04:54:09.096Z,103069.69
2018-10-21T04:55:09.537Z,103070.19
2018-10-21T04:56:10.274Z,103070.37
2018-10-21T04:57:09.478Z,103070.77
2018-10-21T04:58:10.841Z,103071.47
2018-10-21T04:59:10.163Z,103071.73
2018-10-21T05:00:11.602Z,103071.96
2018-10-21T05:01:11.946Z,103072.22
2018-10-21T05:02:12.282Z,103072.48
2018-10-21T05:03:12.585Z,103072.75
2018-10-21T05:04:12.948Z,103072.58
2018-10-21T05:05:12.203Z,103072.81
2018-10-21T05:06:13.478Z,103072.92
2018-10-21T05:07:13.779Z,103072.39
2018-10-21T05:08:14.143Z,103071.97
2018-10-21T05:09:14.396Z,103071.44
2018-10-21T05:10:14.876Z,103070.87
2018-10-21T05:11:14.139Z,103070.11
2018-10-21T05:12:15.555Z,103069.42
2018-10-21T05:13:15.848Z,103068.76
2018-10-21T05:14:16.497Z,103068.16
2018-10-21T05:15:17.250Z,103067.82
2018-10-21T05:16:16.817Z,103067.66
2018-10-21T05:17:16.958Z,103067.42
2018-10-21T05:18:18.579Z,103067.00
2018-10-21T05:19:19.019Z,103066.49
2018-10-21T05:20:19.338Z,103066.08
2018-10-21T05:21:19.773Z,103066.08
2018-10-21T05:22:20.165Z,103065.00
2018-10-21T05:23:20.719Z,103064.73
2018-10-21T05:24:21.311Z,103063.97
2018-10-21T05:25:21.752Z,103062.95
2018-10-21T05:26:22.152Z,103062.59
2018-10-21T05:27:22.427Z,103061.66
2018-10-21T05:28:22.657Z,103060.98
2018-10-21T05:29:22.950Z,103060.11
2018-10-21T05:30:23.374Z,103059.27
2018-10-21T05:31:23.736Z,103058.81
2018-10-21T05:32:24.097Z,103057.80
2018-10-21T05:33:23.729Z,103057.71
2018-10-21T05:34:25.173Z,103057.28
2018-10-21T05:35:25.489Z,103057.37
2018-10-21T05:36:25.804Z,103056.45
2018-10-21T05:36:34.457Z,103047.21
2018-10-21T05:37:35.707Z,103047.28
2018-10-21T05:38:36.068Z,103047.59
2018-10-21T05:39:36.408Z,103047.88
2018-10-21T05:40:36.832Z,103048.11
2018-10-21T05:41:36.184Z,103047.52
2018-10-21T05:42:37.569Z,103047.58
2018-10-21T05:43:38.161Z,103047.69
2018-10-21T05:44:38.521Z,103047.52
2018-10-21T05:45:38.832Z,103047.52
2018-10-21T05:46:39.183Z,103047.41
2018-10-21T05:47:38.515Z,103047.69
2018-10-21T05:48:40.017Z,103047.92
2018-10-21T05:49:40.439Z,103047.92
2018-10-21T05:50:40.852Z,103047.69
2018-10-21T05:51:41.200Z,103047.92
2018-10-21T05:52:41.846Z,103048.25
2018-10-21T05:53:42.138Z,103048.52
2018-10-21T05:54:42.574Z,103048.92
2018-10-21T05:55:42.902Z,103049.27
2018-10-21T05:56:43.285Z,103049.58
2018-10-21T05:57:43.837Z,103050.08
2018-10-21T05:58:43.088Z,103050.35
2018-10-21T05:59:44.501Z,103050.92
2018-10-21T06:00:44.850Z,103051.00
2018-10-21T06:01:45.159Z,103051.44
2018-10-21T06:02:45.097Z,103052.44
2018-10-21T06:03:45.599Z,103053.11
2018-10-21T06:04:47.289Z,103053.84
2018-10-21T06:05:47.606Z,103054.11
2018-10-21T06:06:48.012Z,103054.54
2018-10-21T06:07:48.588Z,103055.37
2018-10-21T06:08:49.145Z,103055.97
2018-10-21T06:09:49.425Z,103056.63
2018-10-21T06:10:48.771Z,103056.97
2018-10-21T06:11:50.235Z,103057.31
2018-10-21T06:12:50.583Z,103057.21
2018-10-21T06:13:51.354Z,103057.05
2018-10-21T06:14:51.748Z,103057.05
2018-10-21T06:15:52.131Z,103056.55
2018-10-21T06:16:51.501Z,103056.97
2018-10-21T06:17:52.768Z,103057.64
2018-10-21T06:18:53.108Z,103057.28
2018-10-21T06:19:53.620Z,103057.22
2018-10-21T06:20:53.969Z,103057.39
2018-10-21T06:21:54.448Z,103057.45
2018-10-21T06:22:53.708Z,103057.39
2018-10-21T06:23:55.053Z,103057.20
2018-10-21T06:24:55.464Z,103057.62
2018-10-21T06:25:55.836Z,103058.00
2018-10-21T06:26:56.232Z,103058.41
2018-10-21T06:27:56.589Z,103058.66
2018-10-21T06:28:05.243Z,103057.75
2018-10-21T06:29:05.652Z,103057.66
2018-10-21T06:30:06.023Z,103057.83
2018-10-21T06:31:06.336Z,103058.09
2018-10-21T06:32:06.717Z,103059.19
2018-10-21T06:33:06.998Z,103059.88
2018-10-21T06:34:06.301Z,103060.63
2018-10-21T06:35:07.736Z,103061.56
2018-10-21T06:36:08.065Z,103062.48
2018-10-21T06:37:08.867Z,103063.61
2018-10-21T06:38:09.189Z,103064.30
2018-10-21T06:39:09.501Z,103065.15
2018-10-21T06:40:08.796Z,103066.06
2018-10-21T06:41:10.123Z,103066.92
2018-10-21T06:42:10.418Z,103067.17
2018-10-21T06:43:10.682Z,103067.63
2018-10-21T06:44:10.947Z,103067.95
2018-10-21T06:45:11.600Z,103068.21
2018-10-21T06:46:10.836Z,103068.30
2018-10-21T06:47:12.104Z,103068.23
2018-10-21T06:48:12.436Z,103068.48
2018-10-21T06:49:13.223Z,103068.48
2018-10-21T06:50:12.562Z,103068.76
2018-10-21T06:51:13.922Z,103068.39
2018-10-21T06:52:13.175Z,103068.91
2018-10-21T06:53:14.487Z,103070.25
2018-10-21T06:54:14.775Z,103070.48
2018-10-21T06:55:15.108Z,103071.25
2018-10-21T06:56:15.536Z,103071.81
2018-10-21T06:57:15.908Z,103072.51
2018-10-21T06:58:15.176Z,103073.53
2018-10-21T06:59:16.476Z,103074.53
2018-10-21T07:00:16.824Z,103075.13
2018-10-21T07:01:17.234Z,103076.39
2018-10-21T07:02:17.557Z,103077.25
2018-10-21T07:03:18.526Z,103078.67
2018-10-21T07:04:19.054Z,103079.84
2018-10-21T07:05:18.360Z,103081.11
2018-10-21T07:06:19.763Z,103082.45
2018-10-21T07:07:20.049Z,103083.53
2018-10-21T07:08:20.346Z,103085.38
2018-10-21T07:09:20.673Z,103087.05
2018-10-21T07:10:21.039Z,103088.30
2018-10-21T07:11:21.829Z,103090.03
2018-10-21T07:12:22.112Z,103091.95
2018-10-21T07:13:22.429Z,103094.11
2018-10-21T07:14:22.901Z,103095.77
2018-10-21T07:15:23.264Z,103097.69
2018-10-21T07:16:23.034Z,103099.20
2018-10-21T07:17:23.601Z,103099.62
2018-10-21T07:17:32.223Z,103120.12
2018-10-21T07:18:32.673Z,103119.52
2018-10-21T07:19:33.015Z,103119.55
2018-10-21T07:20:33.357Z,103119.20
2018-10-21T07:21:33.678Z,103119.45
2018-10-21T07:22:34.662Z,103119.65
2018-10-21T07:23:35.058Z,103119.41
2018-10-21T07:24:35.433Z,103119.52
2018-10-21T07:25:35.806Z,103119.42
2018-10-21T07:26:36.617Z,103119.04
2018-10-21T07:27:37.346Z,103118.81
2018-10-21T07:28:37.967Z,103118.83
2018-10-21T07:29:37.524Z,103119.00
2018-10-21T07:30:38.915Z,103119.45
2018-10-21T07:31:39.211Z,103119.73
2018-10-21T07:32:39.464Z,103119.41
2018-10-21T07:33:39.773Z,103120.00
2018-10-21T07:34:40.297Z,103120.02
2018-10-21T07:35:40.529Z,103120.44
2018-10-21T07:36:40.911Z,103121.03
2018-10-21T07:37:41.255Z,103121.22
2018-10-21T07:38:41.670Z,103121.73
2018-10-21T07:39:42.604Z,103121.68
2018-10-21T07:40:42.979Z,103122.59
2018-10-21T07:41:43.319Z,103123.14
2018-10-21T07:42:43.507Z,103123.66
2018-10-21T07:43:43.801Z,103124.09
2018-10-21T07:44:44.933Z,103124.20
2018-10-21T07:45:44.293Z,103124.38
2018-10-21T07:46:44.598Z,103125.31
2018-10-21T07:47:44.886Z,103126.36
2018-10-21T07:48:45.260Z,103126.21
2018-10-21T07:49:45.577Z,103126.39
2018-10-21T07:50:46.212Z,103126.75
2018-10-21T07:51:46.553Z,103126.86
2018-10-21T07:52:46.997Z,103127.55
2018-10-21T07:53:47.266Z,103127.98
2018-10-21T07:54:47.571Z,103128.26
2018-10-21T07:55:48.280Z,103128.70
2018-10-21T07:56:47.483Z,103128.95
2018-10-21T07:57:48.791Z,103129.47
2018-10-21T07:58:49.147Z,103129.68
2018-10-21T07:59:49.558Z,103130.19
2018-10-21T08:00:48.929Z,103130.63
2018-10-21T08:01:49.251Z,103130.56
2018-10-21T08:02:50.776Z,103131.09
2018-10-21T08:03:51.246Z,103131.53
2018-10-21T08:03:59.913Z,103132.81
2018-10-21T08:05:01.299Z,103132.58
2018-10-21T08:06:00.680Z,103132.75
2018-10-21T08:07:02.042Z,103132.64
2018-10-21T08:08:02.369Z,103133.43
2018-10-21T08:09:02.817Z,103133.76
2018-10-21T08:10:03.181Z,103133.86
2018-10-21T08:11:02.654Z,103133.92
2018-10-21T08:12:03.927Z,103134.36
2018-10-21T08:13:04.613Z,103134.77
2018-10-21T08:14:05.009Z,103135.20
2018-10-21T08:15:05.927Z,103135.78
2018-10-21T08:16:05.624Z,103136.11
2018-10-21T08:17:05.776Z,103136.45
2018-10-21T08:18:07.085Z,103137.41
2018-10-21T08:19:07.470Z,103137.49
2018-10-21T08:20:07.872Z,103137.91
2018-10-21T08:21:08.337Z,103138.16
2018-10-21T08:22:08.625Z,103138.52
2018-10-21T08:23:07.939Z,103138.87
2018-10-21T08:24:09.292Z,103139.11
2018-10-21T08:25:09.627Z,103139.89
2018-10-21T08:26:10.073Z,103139.98
2018-10-21T08:27:10.939Z,103140.47
2018-10-21T08:28:10.231Z,103141.40
2018-10-21T08:29:10.552Z,103142.09
2018-10-21T08:30:11.939Z,103142.68
2018-10-21T08:31:12.229Z,103142.94
2018-10-21T08:32:12.845Z,103143.62
2018-10-21T08:33:13.125Z,103144.23
2018-10-21T08:34:13.454Z,103144.81
2018-10-21T08:35:12.816Z,103145.69
2018-10-21T08:36:14.115Z,103145.67
2018-10-21T08:37:14.584Z,103145.86
2018-10-21T08:38:14.906Z,103145.53
2018-10-21T08:39:15.184Z,103146.30
2018-10-21T08:40:15.697Z,103146.24
2018-10-21T08:41:14.992Z,103145.99
2018-10-21T08:42:17.346Z,103145.67
2018-10-21T08:43:16.735Z,103145.41
2018-10-21T08:44:17.317Z,103145.35
2018-10-21T08:45:17.883Z,103145.13
2018-10-21T08:46:18.214Z,103144.86
2018-10-21T08:47:17.690Z,103144.47
2018-10-21T08:48:19.053Z,103143.23
2018-10-21T08:49:19.511Z,103142.97
2018-10-21T08:50:19.134Z,103142.24
2018-10-21T08:51:20.605Z,103141.34
2018-10-21T08:52:20.967Z,103140.77
2018-10-21T08:53:21.308Z,103140.37
2018-10-21T08:54:21.793Z,103140.12
2018-10-21T08:54:30.473Z,103133.20
2018-10-21T08:55:31.764Z,103132.61
2018-10-21T08:56:32.027Z,103132.52
2018-10-21T08:57:32.407Z,103133.03
2018-10-21T08:58:32.748Z,103132.50
2018-10-21T08:59:33.025Z,103132.34
2018-10-21T09:00:33.367Z,103132.50
2018-10-21T09:01:33.648Z,103132.00
2018-10-21T09:02:34.330Z,103131.33
2018-10-21T09:03:34.676Z,103131.33
2018-10-21T09:04:34.963Z,103130.99
2018-10-21T09:05:35.345Z,103130.16
2018-10-21T09:06:35.735Z,103129.58
2018-10-21T09:07:36.100Z,103128.83
2018-10-21T09:08:36.572Z,103127.98
2018-10-21T09:09:37.015Z,103126.89
2018-10-21T09:10:37.474Z,103125.66
2018-10-21T09:11:36.843Z,103124.47
2018-10-21T09:12:38.279Z,103123.91
2018-10-21T09:13:38.648Z,103121.97
2018-10-21T09:14:39.274Z,103120.96
2018-10-21T09:15:39.495Z,103120.05
2018-10-21T09:16:39.921Z,103118.43
2018-10-21T09:17:39.130Z,103117.35
2018-10-21T09:18:41.031Z,103116.67
2018-10-21T09:19:41.829Z,103115.78
2018-10-21T09:20:42.735Z,103114.69
2018-10-21T09:21:42.126Z,103114.29
2018-10-21T09:22:43.219Z,103113.28
2018-10-21T09:23:43.709Z,103112.44
2018-10-21T09:24:43.134Z,103111.12
2018-10-21T09:25:44.425Z,103110.39
2018-10-21T09:26:44.782Z,103109.90
2018-10-21T09:27:45.073Z,103108.56
2018-10-21T09:28:45.622Z,103107.94
2018-10-21T09:29:44.490Z,103107.27
2018-10-21T09:30:45.864Z,103106.55
2018-10-21T09:31:46.217Z,103105.14
2018-10-21T09:32:46.618Z,103104.32
2018-10-21T09:33:46.933Z,103102.97
2018-10-21T09:34:47.371Z,103102.52
2018-10-21T09:35:47.841Z,103101.60
2018-10-21T09:36:47.105Z,103100.38
2018-10-21T09:37:48.409Z,103099.62
2018-10-21T09:38:48.893Z,103098.55
2018-10-21T09:39:49.200Z,103098.28
2018-10-21T09:40:49.538Z,103097.09
2018-10-21T09:41:49.932Z,103096.43
2018-10-21T09:42:50.343Z,103095.44
2018-10-21T09:42:59.028Z,103080.02
2018-10-21T09:43:59.337Z,103078.95
2018-10-21T09:45:00.744Z,103079.28
2018-10-21T09:46:00.040Z,103079.34
2018-10-21T09:47:01.294Z,103079.27
2018-10-21T09:48:01.570Z,103078.95
2018-10-21T09:49:01.944Z,103078.95
2018-10-21T09:50:01.425Z,103078.84
2018-10-21T09:51:01.728Z,103078.87
2018-10-21T09:52:03.176Z,103078.18
2018-10-21T09:53:02.599Z,103078.28
2018-10-21T09:54:04.005Z,103077.61
2018-10-21T09:55:04.751Z,103077.63
2018-10-21T09:56:06.537Z,103077.78
2018-10-21T09:57:04.515Z,103077.70
2018-10-21T09:58:05.868Z,103077.37
2018-10-21T09:59:05.099Z,103077.66
2018-10-21T10:00:06.508Z,103077.31
2018-10-21T10:01:07.322Z,103077.58
2018-10-21T10:02:06.577Z,103077.09
2018-10-21T10:03:07.878Z,103076.09
2018-10-21T10:04:08.268Z,103075.50
2018-10-21T10:05:07.653Z,103074.53
2018-10-21T10:06:08.129Z,103073.52
2018-10-21T10:07:09.802Z,103072.34
2018-10-21T10:08:09.142Z,103071.53
2018-10-21T10:09:10.496Z,103070.33
2018-10-21T10:10:09.981Z,103069.36
2018-10-21T10:11:10.434Z,103068.28
2018-10-21T10:12:11.819Z,103067.20
2018-10-21T10:13:12.052Z,103066.25
2018-10-21T10:14:11.324Z,103064.94
2018-10-21T10:15:12.658Z,103064.36
2018-10-21T10:16:13.138Z,103062.75
2018-10-21T10:17:12.364Z,103060.97
2018-10-21T10:18:13.699Z,103059.56
2018-10-21T10:19:14.275Z,103058.62
2018-10-21T10:20:13.647Z,103057.28
2018-10-21T10:21:15.251Z,103055.69
2018-10-21T10:22:15.720Z,103054.50
2018-10-21T10:23:15.008Z,103053.73
2018-10-21T10:24:15.406Z,103052.14
2018-10-21T10:25:16.714Z,103051.14
2018-10-21T10:26:16.507Z,103050.02
2018-10-21T10:27:17.884Z,103048.57
2018-10-21T10:28:18.674Z,103047.80
2018-10-21T10:29:18.085Z,103046.45
2018-10-21T10:30:19.781Z,103045.02
2018-10-21T10:31:19.344Z,103044.47
2018-10-21T10:32:19.560Z,103043.27
2018-10-21T10:33:20.880Z,103043.08
2018-10-21T10:34:21.364Z,103041.97
2018-10-21T10:35:21.723Z,103041.16
2018-10-21T10:36:22.277Z,103040.73
2018-10-21T10:37:22.528Z,103039.95
2018-10-21T10:38:23.260Z,103039.24
2018-10-21T10:39:23.821Z,103038.35
2018-10-21T10:40:24.477Z,103037.66
2018-10-21T10:41:25.154Z,103037.13
2018-10-21T10:42:25.484Z,103036.36
2018-10-21T10:43:26.151Z,103035.30
2018-10-21T10:44:26.543Z,103034.27
2018-10-21T10:45:26.930Z,103033.05
2018-10-21T10:46:27.449Z,103032.28
2018-10-21T10:46:36.201Z,103016.01
2018-10-21T10:47:37.443Z,103015.23
2018-10-21T10:48:37.836Z,103015.31
2018-10-21T10:49:38.291Z,103014.97
2018-10-21T10:50:38.677Z,103014.56
2018-10-21T10:51:39.072Z,103014.21
2018-10-21T10:52:39.415Z,103013.51
2018-10-21T10:53:39.787Z,103012.65
2018-10-21T10:54:40.345Z,103012.28
2018-10-21T10:55:40.683Z,103011.34
2018-10-21T10:56:41.004Z,103010.92
2018-10-21T10:57:41.362Z,103010.14
2018-10-21T10:58:42.244Z,103008.92
2018-10-21T10:59:42.695Z,103008.14
2018-10-21T11:00:41.855Z,103007.19
2018-10-21T11:01:43.315Z,103005.98
2018-10-21T11:02:43.737Z,103005.03
2018-10-21T11:03:44.100Z,103004.24
2018-10-21T11:04:44.569Z,103002.64
2018-10-21T11:05:45.322Z,103001.07
2018-10-21T11:06:45.989Z,102999.64
2018-10-21T11:07:46.588Z,102998.17
2018-10-21T11:08:47.259Z,102996.69
2018-10-21T11:09:48.091Z,102995.31
2018-10-21T11:10:48.549Z,102993.61
2018-10-21T11:11:49.101Z,102991.81
2018-10-21T11:12:49.583Z,102989.66
2018-10-21T11:13:50.253Z,102988.26
2018-10-21T11:14:50.695Z,102986.55
2018-10-21T11:15:51.201Z,102985.17
2018-10-21T11:16:51.649Z,102983.14
2018-10-21T11:17:52.064Z,102981.59
2018-10-21T11:18:52.521Z,102980.12
2018-10-21T11:19:52.901Z,102979.08
2018-10-21T11:20:53.762Z,102977.36
2018-10-21T11:21:54.394Z,102975.81
2018-10-21T11:22:53.958Z,102973.76